KRME/RME METAR and TAF weather

Enter ICAO airport designator
Station Type Date Time Source
KRME METAR 2022/11/30 23:53 UTC NOAA

KRME 302353Z 29014KT 10SM FEW034 SCT050 OVC060 03/M01 A2978 RMK AO2 RAE2257 SLP088 P0000 60021 T00331006 10106 20033 51049


Station Type Date Time Source
KRME Decoded METAR 2022/11/30 23:53 UTC NOAA

GRIFFISS AIRFIELD, NY, United States (KRME) 43-14N 075-24W
Nov 30, 2022 - 06:53 PM EST / 2022.11.30 2353 UTC
Wind: from the WNW (290 degrees) at 16 MPH (14 KT):0
Visibility: 10 mile(s):0
Sky conditions: overcast
Precipitation last hour: A trace
Temperature: 37.9 F (3.3 C)
Dew Point: 30.9 F (-0.6 C)
Relative Humidity: 75%
Pressure (altimeter): 29.78 in. Hg (1008 hPa)
Pressure tendency: 0.14 inches (4.9 hPa) higher than three hours ago
ob: KRME 302353Z 29014KT 10SM FEW034 SCT050 OVC060 03/M01 A2978 RMK AO2 RAE2257 SLP088 P0000 60021 T00331006 10106 20033 51049
cycle: 0

Station Type Date Time Source
KRME TAF 2022/11/30 21:06 UTC NOAA

TAF
AMD KRME 302105Z 3021/0118 26020G30KT P6SM -RA BKN025 OVC040
FM302200 26018G28KT P6SM -SHRA SCT015 OVC040
FM010000 27015G25KT P6SM -SHSN OVC035
FM011400 28020G30KT 4SM -SHSN BR BKN025 OVC040

Example: see airport list